Aviation Digital Data Service (ADDS)

Output produced by METARs form (0309 UTC 30 September 2016)
found at http://aviationweather.gov/adds/metars/
 
KSLK 292327Z 3000/3024 07006KT P6SM OVC100 
     FM300500 00000KT P6SM BKN100 
     FM301500 08006KT P6SM BKN110